Columbia, North Carolina
Current Conditions -  °F | °C
As of 5:15 PM on Saturday 20 Dec 2014 (Local Time) from KEDE Reporting Station
Overcast Overcast  
Wind Chill: 40°   Ceiling: 4800
Heat Index: 40°   Visibility: 10mi
Dew Point: 32°   Wind: 0mph
Humidity: 73%   Direction: NA
Pressure: 30.27"   Gusts: NA
Location:  35.92°N, 76.25°W
Report Text: KEDE 202215Z AUTO 00000KT 10SM OVC048 05/00 A3027 RMK AO2 T00450000
Loading
Personal Weather Stations






























Interactive Weather Map New forecast layout! Learn more

10-Day Weather Forecast

Advertisements
Track Severe Weather on mobile